Time;durP1;ratioP1;P1;durP2;ratioP2;P2;SDS_P1;SDS_P2;PMS_P1;PMS_P2;Temp;Humidity;BMP_temperature;BMP_pressure;BME280_temperature;BME280_humidity;BME280_pressure;Samples;Min_cycle;Max_cycle;Signal;HPM_P1;HPM_P2
2023/07/01 00:00:17;;;;;;;5.60;1.10;;;17.80;99.90;;;;;;4988037;28;20089;-36
2023/07/01 00:02:43;;;;;;;5.68;1.45;;;17.80;99.90;;;;;;4988658;28;20451;-35
2023/07/01 00:05:09;;;;;;;4.03;0.90;;;17.80;99.90;;;;;;4986680;28;20427;-35
2023/07/01 00:07:34;;;;;;;5.85;1.05;;;17.80;99.90;;;;;;4986383;28;20416;-35
2023/07/01 00:10:01;;;;;;;3.22;1.08;;;17.80;99.90;;;;;;4986312;28;20042;-36
2023/07/01 00:12:26;;;;;;;6.80;1.30;;;17.80;99.90;;;;;;4990485;28;20046;-35
2023/07/01 00:14:52;;;;;;;2.83;0.85;;;17.80;99.90;;;;;;4988531;28;20045;-35
2023/07/01 00:17:18;;;;;;;2.85;1.10;;;17.80;99.90;;;;;;4990519;28;20416;-35
2023/07/01 00:19:44;;;;;;;4.43;1.00;;;17.80;99.90;;;;;;4988940;28;20050;-36
2023/07/01 00:22:10;;;;;;;2.72;1.00;;;17.80;99.90;;;;;;4989715;28;20061;-35
2023/07/01 00:24:35;;;;;;;5.38;1.33;;;17.80;99.90;;;;;;4988321;28;20050;-35
2023/07/01 00:27:01;;;;;;;4.80;1.13;;;17.80;99.90;;;;;;4989940;28;20038;-35
2023/07/01 00:29:27;;;;;;;6.90;0.98;;;17.80;99.90;;;;;;4989568;28;20062;-35
2023/07/01 00:31:53;;;;;;;4.80;1.95;;;17.80;99.90;;;;;;4984851;28;20411;-35
2023/07/01 00:34:18;;;;;;;4.13;1.08;;;17.70;99.90;;;;;;4984707;28;20043;-35
2023/07/01 00:36:45;;;;;;;3.47;0.98;;;17.70;99.90;;;;;;4989712;28;20137;-36
2023/07/01 00:39:11;;;;;;;3.90;0.70;;;17.70;99.90;;;;;;4988863;28;20165;-35
2023/07/01 00:41:36;;;;;;;4.75;0.95;;;17.70;99.90;;;;;;4988147;28;20094;-35
2023/07/01 00:44:03;;;;;;;4.22;1.00;;;17.70;99.90;;;;;;4988590;28;20057;-35
2023/07/01 00:46:34;;;;;;;4.32;1.20;;;17.70;99.90;;;;;;4988094;28;20066;-36
2023/07/01 00:49:00;;;;;;;4.72;0.85;;;17.70;99.90;;;;;;4986201;28;20146;-36
2023/07/01 00:51:28;;;;;;;5.95;1.35;;;17.60;99.90;;;;;;4988192;28;20046;-35
2023/07/01 00:53:55;;;;;;;3.60;0.90;;;17.60;99.90;;;;;;4985943;28;20046;-35
2023/07/01 00:56:20;;;;;;;3.92;1.05;;;17.60;99.90;;;;;;4988423;28;20496;-36
2023/07/01 00:58:46;;;;;;;2.42;0.82;;;17.60;99.90;;;;;;4987167;28;20056;-35
2023/07/01 01:01:17;;;;;;;4.93;1.45;;;17.60;99.90;;;;;;4987228;28;20042;-36
2023/07/01 01:04:00;;;;;;;4.82;0.80;;;17.60;99.90;;;;;;4986482;28;20080;-35
2023/07/01 01:06:36;;;;;;;4.20;1.00;;;17.60;99.90;;;;;;4984627;28;20411;-35
2023/07/01 01:09:03;;;;;;;6.32;1.23;;;17.60;99.90;;;;;;4988312;28;20058;-35
2023/07/01 01:11:32;;;;;;;4.85;1.33;;;17.60;99.90;;;;;;4988893;28;20058;-35
2023/07/01 01:14:02;;;;;;;8.00;1.20;;;17.60;99.90;;;;;;4987371;28;20049;-35
2023/07/01 01:16:28;;;;;;;3.53;1.20;;;17.60;99.90;;;;;;4989266;28;20069;-35
2023/07/01 01:18:57;;;;;;;5.00;1.38;;;17.60;99.90;;;;;;4988622;28;20113;-35
2023/07/01 01:21:25;;;;;;;4.95;1.20;;;17.60;99.90;;;;;;4986832;28;20050;-35
2023/07/01 01:24:06;;;;;;;7.93;1.10;;;17.60;99.90;;;;;;4989127;28;20042;-35
2023/07/01 01:26:40;;;;;;;4.03;1.30;;;17.70;99.90;;;;;;4979788;28;20070;-35
2023/07/01 01:29:06;;;;;;;2.15;1.13;;;17.70;99.90;;;;;;4990170;28;20054;-35
2023/07/01 01:31:33;;;;;;;4.70;1.30;;;17.70;99.90;;;;;;4982744;28;20051;-35
2023/07/01 01:33:59;;;;;;;3.38;1.30;;;17.70;99.90;;;;;;4990684;28;20113;-36
2023/07/01 01:36:49;;;;;;;6.05;1.73;;;17.70;99.90;;;;;;4983521;28;20054;-35
2023/07/01 01:39:19;;;;;;;4.03;1.13;;;17.70;99.90;;;;;;4982107;28;20137;-35
2023/07/01 01:42:01;;;;;;;4.35;1.58;;;17.70;99.90;;;;;;4987244;28;20050;-35
2023/07/01 01:44:45;;;;;;;3.60;1.58;;;17.70;99.90;;;;;;4987379;28;20506;-36
2023/07/01 01:47:18;;;;;;;3.78;1.38;;;17.70;99.90;;;;;;4982080;28;20175;-35
2023/07/01 01:49:45;;;;;;;6.97;1.65;;;17.60;99.90;;;;;;4988556;28;20140;-35
2023/07/01 01:52:15;;;;;;;3.65;1.23;;;17.70;99.90;;;;;;4987191;28;20407;-35
2023/07/01 01:54:45;;;;;;;3.03;1.40;;;17.70;99.90;;;;;;4987317;28;20488;-36
2023/07/01 01:57:11;;;;;;;5.70;1.52;;;17.70;99.90;;;;;;4979461;28;20057;-36
2023/07/01 01:59:37;;;;;;;4.57;1.60;;;17.60;99.90;;;;;;4987297;28;20053;-36
2023/07/01 02:02:02;;;;;;;8.95;1.70;;;17.60;99.90;;;;;;4979086;28;20073;-35
2023/07/01 02:04:28;;;;;;;4.35;1.75;;;17.60;99.90;;;;;;4985339;28;20086;-36
2023/07/01 02:06:54;;;;;;;4.25;1.65;;;17.60;99.90;;;;;;4984576;28;20121;-36
2023/07/01 02:09:22;;;;;;;6.63;1.70;;;17.60;99.90;;;;;;4985301;28;20062;-35
2023/07/01 02:11:48;;;;;;;7.68;1.50;;;17.50;99.90;;;;;;4988189;28;20523;-36
2023/07/01 02:14:14;;;;;;;4.50;1.30;;;17.50;99.90;;;;;;4983277;28;20054;-35
2023/07/01 02:16:39;;;;;;;3.22;1.65;;;17.50;99.90;;;;;;4985175;28;20062;-35
2023/07/01 02:19:05;;;;;;;3.13;1.30;;;17.50;99.90;;;;;;4986336;28;20050;-35
2023/07/01 02:21:31;;;;;;;5.30;1.85;;;17.50;99.90;;;;;;4985073;28;20154;-35
2023/07/01 02:23:58;;;;;;;5.80;1.58;;;17.40;99.90;;;;;;4985293;28;20085;-36
2023/07/01 02:26:24;;;;;;;4.22;1.23;;;17.40;99.90;;;;;;4985062;28;20058;-35
2023/07/01 02:28:50;;;;;;;6.00;1.63;;;17.40;99.90;;;;;;4985340;28;20128;-36
2023/07/01 02:31:18;;;;;;;2.90;1.65;;;17.40;99.90;;;;;;4987473;28;20046;-35
2023/07/01 02:33:44;;;;;;;4.90;1.77;;;17.30;99.90;;;;;;4980621;28;20228;-36
2023/07/01 02:36:10;;;;;;;2.55;1.10;;;17.20;99.90;;;;;;4979931;28;20427;-36
2023/07/01 02:38:36;;;;;;;3.42;1.30;;;17.10;99.90;;;;;;4983522;28;20130;-35
2023/07/01 02:41:02;;;;;;;6.20;1.52;;;17.10;99.90;;;;;;4990580;28;20053;-35
2023/07/01 02:43:27;;;;;;;5.63;1.40;;;17.00;99.90;;;;;;4989514;28;20061;-35
2023/07/01 02:45:53;;;;;;;5.45;1.30;;;17.00;99.90;;;;;;4988619;28;20743;-35
2023/07/01 02:48:19;;;;;;;3.17;1.15;;;17.00;99.90;;;;;;4989516;28;20471;-35
2023/07/01 02:50:44;;;;;;;3.38;1.10;;;17.00;99.90;;;;;;4991311;28;20054;-35
2023/07/01 02:53:10;;;;;;;2.33;1.23;;;17.00;99.90;;;;;;4989510;28;20688;-36
2023/07/01 02:55:36;;;;;;;5.07;1.50;;;17.00;99.90;;;;;;4989287;28;20054;-35
2023/07/01 02:58:02;;;;;;;4.07;1.40;;;17.00;99.90;;;;;;4989395;28;20038;-35
2023/07/01 03:00:28;;;;;;;5.00;1.35;;;17.00;99.90;;;;;;4989519;28;20058;-35
2023/07/01 03:02:53;;;;;;;6.07;1.13;;;17.00;99.90;;;;;;4989673;28;20448;-35
2023/07/01 03:05:21;;;;;;;5.15;1.17;;;17.00;99.90;;;;;;4987744;28;20066;-36
2023/07/01 03:07:47;;;;;;;5.43;1.15;;;17.00;99.90;;;;;;4985678;28;20058;-36
2023/07/01 03:10:13;;;;;;;3.60;1.23;;;17.00;99.90;;;;;;4988095;28;20058;-45
2023/07/01 03:12:39;;;;;;;6.00;1.33;;;17.00;99.90;;;;;;4984401;28;20054;-35
2023/07/01 03:15:05;;;;;;;9.30;1.73;;;17.00;99.90;;;;;;4988882;28;20412;-35
2023/07/01 03:17:31;;;;;;;3.38;1.30;;;17.00;99.90;;;;;;4986470;28;20397;-37
2023/07/01 03:19:58;;;;;;;4.95;1.40;;;17.00;99.90;;;;;;4990130;28;20061;-36
2023/07/01 03:22:24;;;;;;;4.70;1.40;;;16.90;99.90;;;;;;4985557;28;20487;-36
2023/07/01 03:24:50;;;;;;;3.78;1.45;;;16.90;99.90;;;;;;4987315;28;20046;-35
2023/07/01 03:27:15;;;;;;;5.78;1.65;;;16.90;99.90;;;;;;4990265;28;20062;-35
2023/07/01 03:29:41;;;;;;;6.22;1.70;;;16.90;99.90;;;;;;4978309;28;20094;-36
2023/07/01 03:32:07;;;;;;;4.57;1.33;;;16.90;99.90;;;;;;4987175;28;20054;-36
2023/07/01 03:34:33;;;;;;;5.68;1.92;;;16.90;99.90;;;;;;4988758;28;20519;-35
2023/07/01 03:36:59;;;;;;;4.07;1.67;;;16.80;99.90;;;;;;4986696;28;20317;-35
2023/07/01 03:39:24;;;;;;;4.88;2.00;;;16.70;99.90;;;;;;4996842;28;20457;-36
2023/07/01 03:41:50;;;;;;;4.30;1.58;;;16.60;99.90;;;;;;4987032;28;20515;-35
2023/07/01 03:44:16;;;;;;;3.97;1.77;;;16.60;99.90;;;;;;4986258;28;20404;-35
2023/07/01 03:46:42;;;;;;;5.53;2.00;;;16.50;99.90;;;;;;4974196;28;20408;-36
2023/07/01 03:49:08;;;;;;;7.82;2.67;;;16.50;99.90;;;;;;4989850;28;20065;-35
2023/07/01 03:51:33;;;;;;;5.13;2.20;;;16.40;99.90;;;;;;4988645;28;20046;-35
2023/07/01 03:53:59;;;;;;;4.50;1.48;;;16.40;99.90;;;;;;4984653;28;20049;-35
2023/07/01 03:56:25;;;;;;;5.88;2.10;;;16.40;99.90;;;;;;4989923;28;20051;-35
2023/07/01 03:58:51;;;;;;;3.28;1.70;;;16.40;99.90;;;;;;4989321;28;20057;-36
2023/07/01 04:01:17;;;;;;;4.43;2.30;;;16.40;99.90;;;;;;4989180;28;20078;-35
2023/07/01 04:03:44;;;;;;;3.42;1.85;;;16.40;99.90;;;;;;4988565;28;20069;-36
2023/07/01 04:06:10;;;;;;;6.55;2.03;;;16.40;99.90;;;;;;4990023;28;20054;-35
2023/07/01 04:08:35;;;;;;;5.95;2.25;;;16.40;99.90;;;;;;4984441;28;20127;-35
2023/07/01 04:11:01;;;;;;;3.97;1.60;;;16.40;99.90;;;;;;4989208;28;20530;-36
2023/07/01 04:13:30;;;;;;;5.03;1.92;;;16.50;99.90;;;;;;4989336;28;20046;-35
2023/07/01 04:15:55;;;;;;;4.15;1.52;;;16.50;99.90;;;;;;4985506;28;20058;-35
2023/07/01 04:18:21;;;;;;;4.78;2.40;;;16.50;99.90;;;;;;4974901;28;20104;-35
2023/07/01 04:20:46;;;;;;;3.33;2.03;;;16.50;99.90;;;;;;4987120;28;20420;-35
2023/07/01 04:23:13;;;;;;;6.53;1.73;;;16.40;99.90;;;;;;4989623;28;20509;-35
2023/07/01 04:25:40;;;;;;;7.55;1.92;;;16.40;99.90;;;;;;4985526;28;20050;-35
2023/07/01 04:28:08;;;;;;;3.92;1.58;;;16.30;99.90;;;;;;4988443;28;20568;-35
2023/07/01 04:30:33;;;;;;;6.45;2.70;;;16.30;99.90;;;;;;4989508;28;20050;-35
2023/07/01 04:32:59;;;;;;;3.58;1.88;;;16.30;99.90;;;;;;4987127;28;20050;-35
2023/07/01 04:35:25;;;;;;;5.35;1.73;;;16.30;99.90;;;;;;4988919;28;20077;-35
2023/07/01 04:37:50;;;;;;;4.22;2.40;;;16.30;99.90;;;;;;4985569;28;20132;-35
2023/07/01 04:40:16;;;;;;;3.67;1.77;;;16.30;99.90;;;;;;4987371;28;20141;-35
2023/07/01 04:42:46;;;;;;;4.10;1.85;;;16.30;99.90;;;;;;4987175;28;20054;-35
2023/07/01 04:45:11;;;;;;;4.95;2.08;;;16.30;99.90;;;;;;4993067;28;20050;-35
2023/07/01 04:47:38;;;;;;;4.97;2.20;;;16.30;99.90;;;;;;4989550;28;20062;-35
2023/07/01 04:50:04;;;;;;;3.20;1.58;;;16.30;99.90;;;;;;4978451;28;20039;-35
2023/07/01 04:52:30;;;;;;;4.45;2.80;;;16.30;99.90;;;;;;4981966;28;20169;-35
2023/07/01 04:54:55;;;;;;;5.20;1.95;;;16.40;99.90;;;;;;4985380;28;20185;-35
2023/07/01 04:57:21;;;;;;;4.05;1.80;;;16.40;99.90;;;;;;4986846;28;20089;-35
2023/07/01 04:59:46;;;;;;;12.60;3.78;;;16.40;99.90;;;;;;4988789;28;20161;-35
2023/07/01 05:02:13;;;;;;;4.82;1.90;;;16.50;99.90;;;;;;4986966;28;20065;-35
2023/07/01 05:04:39;;;;;;;5.55;2.00;;;16.50;99.90;;;;;;4988916;28;20046;-35
2023/07/01 05:07:05;;;;;;;5.07;1.75;;;16.50;99.90;;;;;;4988543;28;20100;-36
2023/07/01 05:09:31;;;;;;;6.47;2.30;;;16.50;99.90;;;;;;4987950;28;20204;-35
2023/07/01 05:11:56;;;;;;;5.00;2.33;;;16.60;99.90;;;;;;4986552;28;24329;-35
2023/07/01 05:14:22;;;;;;;7.43;1.75;;;16.60;99.90;;;;;;4988858;28;20415;-35
2023/07/01 05:16:47;;;;;;;3.72;1.77;;;16.70;99.90;;;;;;4988242;28;20065;-35
2023/07/01 05:19:13;;;;;;;5.20;1.80;;;16.70;99.90;;;;;;4990022;28;20054;-35
2023/07/01 05:21:50;;;;;;;4.68;2.10;;;16.70;99.90;;;;;;4986759;28;20054;-35
2023/07/01 05:24:16;;;;;;;4.50;1.90;;;16.70;99.90;;;;;;4984672;28;20073;-38
2023/07/01 05:26:51;;;;;;;3.95;1.73;;;16.80;99.90;;;;;;4986479;28;20054;-35
2023/07/01 05:29:24;;;;;;;5.72;2.20;;;16.80;99.90;;;;;;4985327;28;20050;-36
2023/07/01 05:31:50;;;;;;;5.70;1.80;;;16.80;99.90;;;;;;4987080;28;20049;-35
2023/07/01 05:34:16;;;;;;;4.90;2.05;;;16.80;99.90;;;;;;4991004;28;20141;-36
2023/07/01 05:36:43;;;;;;;4.97;2.00;;;16.80;99.90;;;;;;4984524;28;20050;-35
2023/07/01 05:39:09;;;;;;;4.80;2.45;;;16.80;99.90;;;;;;4984378;28;20069;-35
2023/07/01 05:41:35;;;;;;;4.70;1.77;;;16.80;99.90;;;;;;4987304;28;20046;-35
2023/07/01 05:44:01;;;;;;;4.65;2.00;;;16.80;99.90;;;;;;4987111;28;20065;-35
2023/07/01 05:46:26;;;;;;;5.53;3.10;;;16.80;99.90;;;;;;4986378;28;20108;-35
2023/07/01 05:48:52;;;;;;;5.10;2.10;;;16.80;99.90;;;;;;4983907;28;20121;-35
2023/07/01 05:51:18;;;;;;;5.75;2.00;;;16.70;99.90;;;;;;4986228;28;20085;-35
2023/07/01 05:53:47;;;;;;;3.63;2.22;;;16.70;99.90;;;;;;4985320;28;20081;-35
2023/07/01 05:56:12;;;;;;;4.03;2.30;;;16.70;99.90;;;;;;4989158;28;20057;-35
2023/07/01 05:58:38;;;;;;;5.85;2.35;;;16.70;99.90;;;;;;4987324;28;20121;-36
2023/07/01 06:01:04;;;;;;;5.55;2.53;;;16.60;99.90;;;;;;4984147;28;20054;-36
2023/07/01 06:03:29;;;;;;;4.07;1.98;;;16.60;99.90;;;;;;4987419;28;20161;-35
2023/07/01 06:05:55;;;;;;;3.50;2.10;;;16.60;99.90;;;;;;4987001;28;20461;-36
2023/07/01 06:08:21;;;;;;;4.18;1.98;;;16.50;99.90;;;;;;4986367;28;20393;-35
2023/07/01 06:10:46;;;;;;;4.03;2.15;;;16.50;99.90;;;;;;4982989;28;20050;-35
2023/07/01 06:13:12;;;;;;;5.57;2.45;;;16.50;99.90;;;;;;4985558;28;20065;-35
2023/07/01 06:15:38;;;;;;;4.65;2.50;;;16.40;99.90;;;;;;4986153;28;20061;-35
2023/07/01 06:18:03;;;;;;;4.85;2.15;;;16.40;99.90;;;;;;4984630;28;20046;-35
2023/07/01 06:20:29;;;;;;;5.55;2.45;;;16.40;99.90;;;;;;4988451;28;20070;-35
2023/07/01 06:22:54;;;;;;;4.05;2.70;;;16.40;99.90;;;;;;4985817;28;20058;-35
2023/07/01 06:25:20;;;;;;;5.13;2.47;;;16.40;99.90;;;;;;4989280;28;20381;-35
2023/07/01 06:27:46;;;;;;;6.80;2.92;;;16.40;99.90;;;;;;4984625;28;20062;-35
2023/07/01 06:30:12;;;;;;;6.82;2.30;;;16.40;99.90;;;;;;4978802;28;20050;-35
2023/07/01 06:32:37;;;;;;;4.15;2.33;;;16.40;99.90;;;;;;4983578;28;20133;-35
2023/07/01 06:35:03;;;;;;;5.13;2.60;;;16.50;99.90;;;;;;4985859;28;20046;-34
2023/07/01 06:37:29;;;;;;;4.68;2.58;;;16.50;99.90;;;;;;4984652;28;20094;-35
2023/07/01 06:39:54;;;;;;;4.00;2.53;;;16.50;99.90;;;;;;4986235;28;20484;-35
2023/07/01 06:42:20;;;;;;;5.05;2.30;;;16.50;99.90;;;;;;4987956;28;20094;-35
2023/07/01 06:44:46;;;;;;;4.72;2.83;;;16.50;99.90;;;;;;4985113;28;20050;-35
2023/07/01 06:47:11;;;;;;;4.50;2.50;;;16.50;99.90;;;;;;4982790;28;20134;-35
2023/07/01 06:49:37;;;;;;;4.88;3.33;;;16.60;99.90;;;;;;4987732;28;20066;-35
2023/07/01 06:52:03;;;;;;;4.82;2.88;;;16.60;99.90;;;;;;4984487;28;20054;-35
2023/07/01 06:54:28;;;;;;;7.00;3.08;;;16.60;99.90;;;;;;4986102;28;20093;-35
2023/07/01 06:56:54;;;;;;;4.97;2.88;;;16.60;99.90;;;;;;4984937;28;20053;-35
2023/07/01 06:59:20;;;;;;;6.13;3.38;;;16.60;99.90;;;;;;4973748;28;20050;-35
2023/07/01 07:01:45;;;;;;;6.80;3.10;;;16.60;99.90;;;;;;4983867;28;20201;-36
2023/07/01 07:04:11;;;;;;;4.50;2.95;;;16.60;99.90;;;;;;4987161;28;20133;-35
2023/07/01 07:06:37;;;;;;;4.30;2.50;;;16.70;99.90;;;;;;4986001;28;20049;-35
2023/07/01 07:09:03;;;;;;;5.07;2.88;;;16.70;99.90;;;;;;4985681;28;20057;-35
2023/07/01 07:11:30;;;;;;;5.05;3.10;;;16.70;99.90;;;;;;4989642;28;20058;-35
2023/07/01 07:13:55;;;;;;;6.78;3.00;;;16.70;99.90;;;;;;4983618;28;20502;-36
2023/07/01 07:16:21;;;;;;;5.63;3.08;;;16.70;99.90;;;;;;4988159;28;20050;-35
2023/07/01 07:18:46;;;;;;;5.70;4.18;;;16.70;99.90;;;;;;4985493;28;20431;-35
2023/07/01 07:21:12;;;;;;;5.72;2.70;;;16.80;99.90;;;;;;4985851;28;20065;-36
2023/07/01 07:23:38;;;;;;;5.80;2.80;;;16.90;99.90;;;;;;4989104;28;20112;-36
2023/07/01 07:26:03;;;;;;;5.72;2.80;;;17.00;99.90;;;;;;4982700;28;20057;-35
2023/07/01 07:28:29;;;;;;;5.10;2.63;;;17.00;99.90;;;;;;4994484;28;20054;-36
2023/07/01 07:30:55;;;;;;;5.78;3.25;;;17.00;99.90;;;;;;4986384;28;20073;-35
2023/07/01 07:33:20;;;;;;;5.75;2.67;;;17.10;99.90;;;;;;4990537;28;20054;-36
2023/07/01 07:35:46;;;;;;;4.82;2.58;;;17.10;99.90;;;;;;4988871;28;20049;-36
2023/07/01 07:38:12;;;;;;;3.70;2.60;;;17.10;99.90;;;;;;4987754;28;20141;-42
2023/07/01 07:40:37;;;;;;;6.05;2.75;;;17.10;99.90;;;;;;4990314;28;20054;-35
2023/07/01 07:43:10;;;;;;;4.47;2.65;;;17.20;99.90;;;;;;4984820;28;20050;-35
2023/07/01 07:45:36;;;;;;;3.80;2.47;;;17.20;99.90;;;;;;4986305;28;20046;-36
2023/07/01 07:48:02;;;;;;;10.95;3.55;;;17.20;99.90;;;;;;4987814;28;20054;-35
2023/07/01 07:50:27;;;;;;;4.32;2.70;;;17.20;99.90;;;;;;4990302;28;20062;-36
2023/07/01 07:52:53;;;;;;;3.92;2.75;;;17.20;99.90;;;;;;4987761;28;20043;-35
2023/07/01 07:55:19;;;;;;;4.30;2.95;;;17.20;99.90;;;;;;4986692;28;20050;-35
2023/07/01 07:57:44;;;;;;;5.93;2.75;;;17.20;99.90;;;;;;4991613;28;20050;-35
2023/07/01 08:00:11;;;;;;;4.60;2.50;;;17.20;99.90;;;;;;4982257;28;20050;-35
2023/07/01 08:02:42;;;;;;;5.45;2.75;;;17.20;99.90;;;;;;4988360;28;20381;-36
2023/07/01 08:05:08;;;;;;;5.88;2.88;;;17.20;99.90;;;;;;4985754;28;20496;-36
2023/07/01 08:07:34;;;;;;;5.35;2.80;;;17.20;99.90;;;;;;4985585;28;20061;-36
2023/07/01 08:09:59;;;;;;;4.38;2.70;;;17.30;99.90;;;;;;4990563;28;20108;-35
2023/07/01 08:12:25;;;;;;;3.97;2.80;;;17.30;99.90;;;;;;4991249;28;20050;-37
2023/07/01 08:14:51;;;;;;;4.95;2.35;;;17.30;99.90;;;;;;4989161;28;20133;-36
2023/07/01 08:17:17;;;;;;;4.72;2.75;;;17.30;99.90;;;;;;4969390;28;20091;-36
2023/07/01 08:19:43;;;;;;;4.95;2.88;;;17.30;99.90;;;;;;4988084;28;20543;-36
2023/07/01 08:22:09;;;;;;;4.88;2.80;;;17.30;99.90;;;;;;4960000;28;20054;-36
2023/07/01 08:24:34;;;;;;;4.20;2.63;;;17.40;99.90;;;;;;4985275;28;20046;-35
2023/07/01 08:27:00;;;;;;;4.30;2.38;;;17.40;99.90;;;;;;4987102;28;20514;-36
2023/07/01 08:29:26;;;;;;;4.15;2.63;;;17.40;99.90;;;;;;4981327;28;20132;-35
2023/07/01 08:31:51;;;;;;;3.88;2.60;;;17.50;99.90;;;;;;4987443;28;20054;-36
2023/07/01 08:34:17;;;;;;;4.30;3.03;;;17.40;99.90;;;;;;4996717;28;20100;-36
2023/07/01 08:36:43;;;;;;;6.15;3.00;;;17.50;99.90;;;;;;4988301;28;20440;-36
2023/07/01 08:39:08;;;;;;;5.32;2.92;;;17.40;99.90;;;;;;4987684;28;20420;-36
2023/07/01 08:41:59;;;;;;;4.75;2.55;;;17.40;99.90;;;;;;4986607;28;20050;-36
2023/07/01 08:44:25;;;;;;;4.30;3.03;;;17.40;99.90;;;;;;4988688;28;20050;-36
2023/07/01 08:46:55;;;;;;;3.80;2.53;;;17.50;99.90;;;;;;4986938;28;20047;-35
2023/07/01 08:49:24;;;;;;;8.77;2.88;;;17.50;99.90;;;;;;4988964;28;20132;-36
2023/07/01 08:52:10;;;;;;;5.30;3.08;;;17.50;99.90;;;;;;4981681;28;20430;-36
2023/07/01 08:54:37;;;;;;;5.05;3.03;;;17.50;99.90;;;;;;4986157;28;20532;-36
2023/07/01 08:57:03;;;;;;;5.25;3.00;;;17.50;99.90;;;;;;4989237;28;20056;-37
2023/07/01 08:59:32;;;;;;;5.95;3.63;;;17.50;99.90;;;;;;4987150;28;21099;-36
2023/07/01 09:01:59;;;;;;;4.95;3.20;;;17.60;99.90;;;;;;4986319;28;20058;-36
2023/07/01 09:04:27;;;;;;;4.00;2.67;;;17.60;99.90;;;;;;4987376;28;20511;-36
2023/07/01 09:06:52;;;;;;;5.00;2.92;;;17.60;99.90;;;;;;4989607;28;20038;-36
2023/07/01 09:09:18;;;;;;;5.20;3.47;;;17.60;99.90;;;;;;4988378;28;20427;-36
2023/07/01 09:11:44;;;;;;;6.75;2.90;;;17.70;99.90;;;;;;4988374;28;20082;-36
2023/07/01 09:14:10;;;;;;;4.20;2.83;;;17.80;99.90;;;;;;4984568;28;20534;-36
2023/07/01 09:16:36;;;;;;;6.20;3.40;;;17.90;99.90;;;;;;4975735;28;20061;-36
2023/07/01 09:19:07;;;;;;;4.85;2.60;;;17.90;99.90;;;;;;4978436;28;20053;-36
2023/07/01 09:21:34;;;;;;;8.20;3.83;;;18.00;99.90;;;;;;4982208;28;20046;-36
2023/07/01 09:24:00;;;;;;;4.18;2.70;;;18.00;99.90;;;;;;4985253;28;20072;-36
2023/07/01 09:26:30;;;;;;;5.90;2.55;;;18.00;99.90;;;;;;4980078;28;20471;-36
2023/07/01 09:28:57;;;;;;;4.07;2.50;;;18.00;99.90;;;;;;4978567;28;20299;-36
2023/07/01 09:31:22;;;;;;;4.00;2.67;;;18.00;99.90;;;;;;4982072;28;20065;-37
2023/07/01 09:34:06;;;;;;;3.38;2.28;;;18.10;99.90;;;;;;4990717;28;20050;-36
2023/07/01 09:36:32;;;;;;;4.30;2.50;;;18.10;99.90;;;;;;4982865;28;20108;-43
2023/07/01 09:39:00;;;;;;;4.32;2.50;;;18.10;99.90;;;;;;4984648;28;20122;-36
2023/07/01 09:41:27;;;;;;;3.80;2.50;;;18.10;99.90;;;;;;4985674;28;20046;-36
2023/07/01 09:43:54;;;;;;;3.85;2.28;;;18.10;99.90;;;;;;4988060;28;20409;-36
2023/07/01 09:46:21;;;;;;;5.10;3.10;;;18.10;99.90;;;;;;4983380;28;20546;-36
2023/07/01 09:48:54;;;;;;;4.55;2.70;;;18.20;99.90;;;;;;4990804;28;20524;-36
2023/07/01 09:51:22;;;;;;;4.97;2.90;;;18.20;99.90;;;;;;4982101;28;20109;-36
2023/07/01 09:53:48;;;;;;;4.18;2.50;;;18.20;99.90;;;;;;4987215;28;20149;-36
2023/07/01 09:56:17;;;;;;;5.55;2.65;;;18.20;99.90;;;;;;4979579;28;20058;-37
2023/07/01 09:58:47;;;;;;;3.72;2.42;;;18.20;99.90;;;;;;4992553;28;20046;-36
2023/07/01 10:01:14;;;;;;;3.72;2.50;;;18.30;99.90;;;;;;4986931;28;20050;-36
2023/07/01 10:03:42;;;;;;;4.35;2.60;;;18.30;99.90;;;;;;4982888;28;20061;-36
2023/07/01 10:06:11;;;;;;;3.83;2.47;;;18.50;99.90;;;;;;4982437;28;20056;-36
2023/07/01 10:08:38;;;;;;;4.80;2.58;;;18.60;99.90;;;;;;4983427;28;20054;-36
2023/07/01 10:11:14;;;;;;;3.90;2.60;;;18.60;99.90;;;;;;4982211;28;20145;-36
2023/07/01 10:13:48;;;;;;;4.43;2.80;;;18.60;99.90;;;;;;4983656;28;20072;-36
2023/07/01 10:16:15;;;;;;;3.97;2.50;;;18.60;99.90;;;;;;4969332;28;20411;-36
2023/07/01 10:18:41;;;;;;;9.65;2.85;;;18.50;99.90;;;;;;4982078;28;20141;-36
2023/07/01 10:21:25;;;;;;;4.18;2.75;;;18.60;99.90;;;;;;4980563;28;20184;-36
2023/07/01 10:23:59;;;;;;;3.80;2.63;;;18.60;99.90;;;;;;4979927;28;20058;-36
2023/07/01 10:26:41;;;;;;;4.70;2.20;;;18.60;99.90;;;;;;4983715;28;20082;-36
2023/07/01 10:29:28;;;;;;;3.33;2.13;;;18.70;99.90;;;;;;4983057;28;20124;-37
2023/07/01 10:32:09;;;;;;;4.55;2.38;;;18.70;99.90;;;;;;4983358;28;20493;-36
2023/07/01 10:34:53;;;;;;;4.05;2.53;;;18.70;99.90;;;;;;4982299;28;20105;-36
2023/07/01 10:37:31;;;;;;;3.90;2.45;;;18.70;99.90;;;;;;4979590;28;20086;-35
2023/07/01 10:39:58;;;;;;;3.83;2.08;;;18.70;99.90;;;;;;4967163;28;20124;-36
2023/07/01 10:42:32;;;;;;;4.97;2.20;;;18.70;99.90;;;;;;4988144;28;20052;-36
2023/07/01 10:45:12;;;;;;;3.38;2.00;;;18.70;99.90;;;;;;4978266;28;20154;-36
2023/07/01 10:47:43;;;;;;;3.80;2.03;;;18.60;99.90;;;;;;4983850;28;20411;-36
2023/07/01 10:50:18;;;;;;;3.10;1.85;;;18.50;99.90;;;;;;4967684;28;20047;-37
2023/07/01 10:52:56;;;;;;;3.88;2.28;;;18.50;99.90;;;;;;4982955;28;20077;-37
2023/07/01 10:55:44;;;;;;;4.95;2.00;;;18.50;99.90;;;;;;4981276;28;20058;-36
2023/07/01 10:58:13;;;;;;;3.90;1.98;;;18.50;99.90;;;;;;4982029;28;20050;-36
2023/07/01 11:00:40;;;;;;;3.13;1.90;;;18.40;99.90;;;;;;4980352;28;20156;-37
2023/07/01 11:03:33;;;;;;;3.80;2.17;;;18.40;99.90;;;;;;4985003;28;20054;-36
2023/07/01 11:06:17;;;;;;;2.50;1.30;;;18.50;99.90;;;;;;4979543;28;20117;-37
2023/07/01 11:08:50;;;;;;;2.65;1.48;;;18.50;99.90;;;;;;4984476;28;20069;-36
2023/07/01 11:11:27;;;;;;;2.63;1.70;;;18.50;99.90;;;;;;4982466;28;20088;-37
2023/07/01 11:13:57;;;;;;;3.50;1.77;;;18.50;99.90;;;;;;4987926;28;20042;-37
2023/07/01 11:16:23;;;;;;;4.53;1.92;;;18.60;99.90;;;;;;4979673;28;20503;-37
2023/07/01 11:18:51;;;;;;;3.17;1.73;;;18.80;99.90;;;;;;4987015;28;20058;-37
2023/07/01 11:21:27;;;;;;;2.85;1.52;;;18.90;99.90;;;;;;4989012;28;20050;-37
2023/07/01 11:23:58;;;;;;;2.78;1.50;;;19.10;99.90;;;;;;4989125;28;20050;-37
2023/07/01 11:26:26;;;;;;;2.83;1.60;;;19.10;99.90;;;;;;4988550;28;20046;-37
2023/07/01 11:28:52;;;;;;;2.60;1.30;;;19.10;99.90;;;;;;4991199;28;20050;-37
2023/07/01 11:31:22;;;;;;;1.77;0.70;;;18.90;99.90;;;;;;4987373;28;20058;-37
2023/07/01 11:33:53;;;;;;;2.28;0.80;;;18.80;99.90;;;;;;4991089;28;20136;-36
2023/07/01 11:36:20;;;;;;;1.77;0.80;;;18.70;99.90;;;;;;4989395;28;20050;-37
2023/07/01 11:38:48;;;;;;;2.40;1.20;;;18.60;99.90;;;;;;4990630;28;20073;-36
2023/07/01 11:41:19;;;;;;;2.30;1.00;;;18.60;99.90;;;;;;4994263;28;20054;-36
2023/07/01 11:43:46;;;;;;;2.88;1.67;;;18.70;99.90;;;;;;4990736;28;20104;-36
2023/07/01 11:46:13;;;;;;;3.00;1.30;;;18.70;99.90;;;;;;4985711;28;20109;-36
2023/07/01 11:48:40;;;;;;;2.90;1.88;;;18.80;99.90;;;;;;4971451;28;20558;-37
2023/07/01 11:51:06;;;;;;;4.00;1.67;;;18.80;99.90;;;;;;4990661;28;20078;-37
2023/07/01 11:53:33;;;;;;;4.63;1.73;;;18.80;99.90;;;;;;4990754;28;20467;-36
2023/07/01 11:56:01;;;;;;;6.13;1.88;;;18.80;99.90;;;;;;4989207;28;20106;-37
2023/07/01 11:58:33;;;;;;;2.88;1.75;;;18.80;99.90;;;;;;4988635;28;20500;-37
2023/07/01 12:01:00;;;;;;;2.20;1.30;;;18.80;99.90;;;;;;4988449;28;20534;-37
2023/07/01 12:03:32;;;;;;;2.40;1.17;;;18.80;99.90;;;;;;4977462;28;20054;-38
2023/07/01 12:05:58;;;;;;;2.90;1.70;;;18.80;99.90;;;;;;4977588;28;20476;-37
2023/07/01 12:08:24;;;;;;;4.57;1.77;;;18.80;99.90;;;;;;4989909;28;20046;-36
2023/07/01 12:10:50;;;;;;;6.20;2.13;;;18.70;99.90;;;;;;4993749;28;20451;-37
2023/07/01 12:13:32;;;;;;;4.47;1.77;;;18.70;99.90;;;;;;4987200;28;20056;-37
2023/07/01 12:15:59;;;;;;;6.10;2.78;;;18.80;99.90;;;;;;4980699;28;20050;-37
2023/07/01 12:18:27;;;;;;;4.80;2.78;;;18.90;99.90;;;;;;4986621;28;20863;-37
2023/07/01 12:20:56;;;;;;;7.55;3.03;;;19.00;99.90;;;;;;4977520;28;20161;-37
2023/07/01 12:23:22;;;;;;;4.88;2.78;;;19.00;99.90;;;;;;4979410;28;20042;-37
2023/07/01 12:25:48;;;;;;;7.75;3.85;;;19.10;99.90;;;;;;4990056;28;20500;-37
2023/07/01 12:28:13;;;;;;;5.22;3.25;;;19.30;99.90;;;;;;4992795;28;20061;-37
2023/07/01 12:30:40;;;;;;;5.63;3.53;;;19.50;99.90;;;;;;4988288;28;20050;-37
2023/07/01 12:33:05;;;;;;;6.68;3.38;;;19.70;99.90;;;;;;4988441;28;20073;-37
2023/07/01 12:35:31;;;;;;;7.70;3.17;;;19.90;99.90;;;;;;4987035;28;20132;-37
2023/07/01 12:37:58;;;;;;;4.80;2.83;;;20.20;99.90;;;;;;4978180;28;20104;-37
2023/07/01 12:40:30;;;;;;;4.78;2.58;;;20.40;99.90;;;;;;4997044;28;20201;-37
2023/07/01 12:42:56;;;;;;;5.47;2.58;;;20.60;99.90;;;;;;4974552;28;20065;-37
2023/07/01 12:45:21;;;;;;;3.78;2.45;;;20.70;99.90;;;;;;4986195;28;20554;-37
2023/07/01 12:47:47;;;;;;;5.00;2.95;;;20.60;99.90;;;;;;4987771;28;20097;-37
2023/07/01 12:50:13;;;;;;;5.45;2.60;;;20.40;99.90;;;;;;4981270;28;20279;-37